Corumba de Goias, Brazil
Current Conditions -  °F | °C
As of 4:00 PM on Wednesday 26 Nov 2014 (Local Time) from SBAN Reporting Station
Broken Clouds Broken Clouds  
Wind Chill: 70°   Ceiling: 900
Heat Index: 70°   Visibility: 6mi
Dew Point: 66°   Wind: 2mph
Humidity: 88%   Direction: 360°N
Pressure: 29.97"   Gusts: NA
Location:  15.92°S, 48.81°W
Report Text: SBAN 261800Z 36002KT 9999 BKN009 SCT015 FEW020TCU 21/19 Q1015
Loading
Personal Weather Stations






























Interactive Weather Map New forecast layout! Learn more

10-Day Weather Forecast

Advertisements
Track Severe Weather on mobile